Time;durP1;ratioP1;P1;durP2;ratioP2;P2;SDS_P1;SDS_P2;PMS_P1;PMS_P2;Temp;Humidity;BMP_temperature;BMP_pressure;BME280_temperature;BME280_humidity;BME280_pressure;Samples;Min_cycle;Max_cycle;Signal;HPM_P1;HPM_P2
2021/10/15 00:01:36;;;;;;;16.80;15.00;;;;;;;10.73;85.48;100838.69;1641685;86;22122;-76
2021/10/15 00:04:04;;;;;;;18.12;15.35;;;;;;;10.72;85.49;100833.09;1641701;86;20924;-76
2021/10/15 00:06:30;;;;;;;18.70;15.13;;;;;;;10.73;85.48;100836.95;1636213;86;20960;-76
2021/10/15 00:08:56;;;;;;;20.93;15.80;;;;;;;10.62;85.47;100812.96;1642050;86;21293;-76
2021/10/15 00:11:22;;;;;;;20.43;15.60;;;;;;;10.71;85.49;100833.97;1627712;86;22018;-76
2021/10/15 00:13:49;;;;;;;21.30;14.23;;;;;;;10.70;85.44;100832.26;1650802;86;20905;-76
2021/10/15 00:16:22;;;;;;;18.87;14.55;;;;;;;10.70;85.51;100829.23;1641969;86;20893;-76
2021/10/15 00:18:49;;;;;;;17.62;15.48;;;;;;;10.70;85.49;100837.43;1631674;87;36102;-76
2021/10/15 00:21:15;;;;;;;17.70;14.03;;;;;;;10.68;85.51;100828.84;1646888;86;20897;-76
2021/10/15 00:23:52;;;;;;;17.17;14.58;;;;;;;10.69;85.49;100833.99;1641398;86;20900;-76
2021/10/15 00:26:18;;;;;;;22.53;15.53;;;;;;;10.68;85.53;100824.95;1644552;86;20892;-76
2021/10/15 00:28:44;;;;;;;19.03;14.87;;;;;;;10.68;85.54;100830.98;1642033;86;20975;-76
2021/10/15 00:31:11;;;;;;;19.03;15.50;;;;;;;10.67;85.54;100827.98;1642034;87;20873;-76
2021/10/15 00:33:37;;;;;;;19.30;15.07;;;;;;;10.67;85.53;100824.10;1641193;86;21657;-76
2021/10/15 00:36:03;;;;;;;18.70;14.20;;;;;;;10.66;85.51;100815.92;1640889;87;21608;-76
2021/10/15 00:38:30;;;;;;;21.17;14.63;;;;;;;10.68;85.53;100824.95;1646967;86;21000;-76
2021/10/15 00:40:57;;;;;;;16.23;14.53;;;;;;;10.67;85.50;100817.64;1637253;87;20940;-76
2021/10/15 00:43:25;;;;;;;23.10;15.80;;;;;;;10.68;85.52;100821.08;1636578;86;20965;-77
2021/10/15 00:45:52;;;;;;;21.27;13.68;;;;;;;10.67;85.52;100820.66;1640950;86;20892;-77
2021/10/15 00:48:18;;;;;;;18.23;14.07;;;;;;;10.67;85.52;100816.34;1637348;87;20929;-77
2021/10/15 00:50:46;;;;;;;17.30;15.10;;;;;;;10.66;85.52;100813.78;1636660;87;20953;-77
2021/10/15 00:53:12;;;;;;;17.00;14.93;;;;;;;10.66;85.54;100815.92;1637122;86;20964;-77
2021/10/15 00:55:39;;;;;;;25.17;16.73;;;;;;;10.66;85.56;100813.34;1637438;87;20941;-77
2021/10/15 00:58:05;;;;;;;23.90;16.15;;;;;;;10.66;85.52;100814.63;1631111;86;21334;-77
2021/10/15 01:00:31;;;;;;;22.35;14.35;;;;;;;10.65;85.51;100810.77;1636504;87;20924;-77
2021/10/15 01:02:57;;;;;;;23.40;16.13;;;;;;;10.65;85.49;100803.88;1636801;87;20949;-77
2021/10/15 01:05:24;;;;;;;17.10;14.05;;;;;;;10.63;85.53;100800.45;1656657;84;21016;-77
2021/10/15 01:07:53;;;;;;;17.32;14.90;;;;;;;10.63;85.57;100804.33;1637070;87;20921;-77
2021/10/15 01:10:19;;;;;;;18.05;15.80;;;;;;;10.64;85.54;100799.58;1637591;87;20960;-77
2021/10/15 01:12:46;;;;;;;20.45;15.50;;;;;;;10.63;85.53;100798.30;1637604;86;20961;-77
2021/10/15 01:15:12;;;;;;;19.92;14.80;;;;;;;10.63;85.54;100800.89;1626063;86;20925;-77
2021/10/15 01:17:38;;;;;;;19.67;15.23;;;;;;;10.61;85.55;100795.30;1637213;86;21374;-77
2021/10/15 01:20:06;;;;;;;20.47;15.43;;;;;;;10.61;85.53;100791.86;1637772;87;20971;-77
2021/10/15 01:22:32;;;;;;;23.05;15.65;;;;;;;10.54;85.58;100781.17;1633611;86;20893;-76
2021/10/15 01:24:58;;;;;;;20.90;15.53;;;;;;;10.60;85.52;100794.02;1633238;87;20956;-76
2021/10/15 01:27:25;;;;;;;19.40;15.38;;;;;;;10.58;85.51;100795.77;1633868;87;20924;-76
2021/10/15 01:30:00;;;;;;;22.95;16.27;;;;;;;10.56;85.52;100788.03;1633001;87;20920;-76
2021/10/15 01:32:26;;;;;;;22.13;16.53;;;;;;;10.54;85.52;100788.50;1637143;87;20952;-76
2021/10/15 01:34:52;;;;;;;21.20;17.27;;;;;;;10.53;85.56;100786.78;1636634;87;21624;-76
2021/10/15 01:37:18;;;;;;;20.23;16.40;;;;;;;10.53;85.54;100782.05;1637597;87;20917;-76
2021/10/15 01:39:44;;;;;;;19.87;16.67;;;;;;;10.51;85.54;100782.07;1637322;86;21645;-76
2021/10/15 01:42:54;;;;;;;19.17;16.40;;;;;;;10.52;85.58;100788.95;1641302;85;21581;-76
2021/10/15 01:44:38;;;;;;;23.73;16.97;;;;;;;10.50;85.58;100780.36;1633595;86;20885;-76
2021/10/15 01:47:04;;;;;;;24.67;17.83;;;;;;;10.51;85.58;100776.05;1637647;87;20957;-76
2021/10/15 01:49:30;;;;;;;22.30;16.93;;;;;;;10.50;85.56;100779.50;1636595;86;20957;-76
2021/10/15 01:51:56;;;;;;;24.47;17.40;;;;;;;10.50;85.59;100777.78;1636885;87;20895;-76
2021/10/15 01:54:22;;;;;;;22.87;16.87;;;;;;;10.50;85.61;100776.48;1637587;87;20877;-76
2021/10/15 01:56:50;;;;;;;20.77;16.80;;;;;;;10.51;85.56;100767.85;1636752;87;20924;-76
2021/10/15 01:59:16;;;;;;;22.17;15.63;;;;;;;10.50;85.56;100769.16;1634277;86;21888;-76
2021/10/15 02:01:43;;;;;;;23.87;17.03;;;;;;;10.49;85.54;100768.75;1640639;86;20884;-76
2021/10/15 02:04:09;;;;;;;21.27;15.75;;;;;;;10.50;85.60;100770.45;1637151;86;20877;-76
2021/10/15 02:06:35;;;;;;;20.30;16.50;;;;;;;10.49;85.57;100760.98;1634505;87;21578;-76
2021/10/15 02:09:01;;;;;;;21.03;16.23;;;;;;;10.47;85.57;100761.01;1633595;86;20965;-76
2021/10/15 02:11:27;;;;;;;25.80;16.63;;;;;;;10.48;85.60;100758.84;1636779;86;20949;-76
2021/10/15 02:13:53;;;;;;;23.27;16.70;;;;;;;10.48;85.61;100756.70;1635936;86;21442;-76
2021/10/15 02:16:19;;;;;;;23.40;18.20;;;;;;;10.47;85.60;100758.42;1604676;86;20973;-76
2021/10/15 02:18:45;;;;;;;21.83;16.40;;;;;;;10.47;85.59;100751.11;1645303;86;20897;-76
2021/10/15 02:21:12;;;;;;;21.57;16.70;;;;;;;10.46;85.63;100739.05;1637275;87;21360;-76
2021/10/15 02:23:38;;;;;;;24.13;17.30;;;;;;;10.46;85.60;100739.91;1636989;87;20952;-76
2021/10/15 02:26:04;;;;;;;26.65;17.90;;;;;;;10.46;85.59;100750.25;1617502;87;20977;-76
2021/10/15 02:28:30;;;;;;;22.67;16.07;;;;;;;10.45;85.59;100741.22;1637449;87;20885;-76
2021/10/15 02:30:57;;;;;;;25.95;17.50;;;;;;;10.45;85.64;100738.20;1631582;86;20932;-76
2021/10/15 02:33:22;;;;;;;20.07;16.10;;;;;;;10.45;85.65;100739.49;1615561;87;20913;-76
2021/10/15 02:35:50;;;;;;;21.00;16.20;;;;;;;10.45;85.61;100736.05;1637234;87;20964;-76
2021/10/15 02:38:16;;;;;;;20.57;17.17;;;;;;;10.45;85.63;100736.05;1636803;87;20897;-76
2021/10/15 02:40:42;;;;;;;24.77;18.10;;;;;;;10.44;85.64;100727.44;1634367;86;20961;-76
2021/10/15 02:43:17;;;;;;;25.17;16.62;;;;;;;10.44;85.65;100733.91;1637225;87;20924;-76
2021/10/15 02:45:43;;;;;;;20.88;16.17;;;;;;;10.44;85.60;100735.63;1636842;87;20885;-76
2021/10/15 02:48:09;;;;;;;21.20;16.37;;;;;;;10.44;85.64;100739.08;1636686;86;20961;-76
2021/10/15 02:50:36;;;;;;;;;;;;;;;10.43;85.64;100740.39;1639715;87;20921;-76
2021/10/15 02:53:02;;;;;;;23.95;16.02;;;;;;;10.44;85.70;100736.93;1635812;87;20228;-76
2021/10/15 02:55:28;;;;;;;26.68;18.37;;;;;;;10.43;85.68;100727.46;1637052;86;20957;-76
2021/10/15 02:57:54;;;;;;;24.07;17.43;;;;;;;10.43;85.68;100718.41;1637401;86;20955;-76
2021/10/15 03:00:21;;;;;;;22.03;17.70;;;;;;;10.35;85.65;100703.05;1637551;87;21315;-76
2021/10/15 03:02:47;;;;;;;28.53;18.17;;;;;;;10.43;85.66;100711.52;1636298;87;20897;-76
2021/10/15 03:05:13;;;;;;;23.87;17.57;;;;;;;10.44;85.66;100705.91;1637028;86;22006;-76
2021/10/15 03:07:39;;;;;;;23.00;16.93;;;;;;;10.44;85.69;100716.25;1636114;87;20932;-76
2021/10/15 03:10:14;;;;;;;26.62;17.85;;;;;;;10.45;85.70;100714.94;1637155;86;20924;-76
2021/10/15 03:12:40;;;;;;;29.40;20.03;;;;;;;10.45;85.66;100704.59;1636279;86;20924;-76
2021/10/15 03:15:08;;;;;;;25.30;19.30;;;;;;;10.45;85.66;100704.59;1636554;86;20948;-76
2021/10/15 03:17:40;;;;;;;25.35;19.10;;;;;;;10.45;85.73;100705.89;1637393;87;20968;-76
2021/10/15 03:20:08;;;;;;;27.37;19.33;;;;;;;10.46;85.71;100717.08;1637290;86;20901;-76
2021/10/15 03:22:34;;;;;;;23.27;19.10;;;;;;;10.46;85.48;100716.64;1635719;86;21636;-76
2021/10/15 03:25:12;;;;;;;24.02;17.87;;;;;;;10.47;85.67;100715.77;1637411;87;20917;-76
2021/10/15 03:27:38;;;;;;;27.02;19.42;;;;;;;10.46;85.70;100708.89;1637383;87;20916;-76
2021/10/15 03:30:06;;;;;;;26.42;18.60;;;;;;;10.48;85.72;100706.28;1628226;86;20963;-76
2021/10/15 03:32:33;;;;;;;28.77;19.45;;;;;;;10.48;85.71;100704.55;1632978;86;20885;-76
2021/10/15 03:34:59;;;;;;;30.95;19.98;;;;;;;10.49;85.66;100702.82;1637483;87;21540;-76
2021/10/15 03:37:25;;;;;;;25.43;18.97;;;;;;;10.49;85.66;100695.06;1628473;86;21125;-76
2021/10/15 03:39:57;;;;;;;27.45;18.85;;;;;;;10.48;85.68;100695.50;1635131;86;21059;-76
2021/10/15 03:42:23;;;;;;;22.83;19.40;;;;;;;10.48;85.69;100694.21;1632786;87;21067;-76
2021/10/15 03:44:49;;;;;;;21.82;18.85;;;;;;;10.48;85.70;100694.21;1635306;87;21115;-76
2021/10/15 03:47:19;;;;;;;25.72;19.15;;;;;;;10.49;85.71;100688.60;1635426;86;21052;-76
2021/10/15 03:49:45;;;;;;;25.43;19.20;;;;;;;10.47;85.67;100682.16;1635689;86;21087;-72
2021/10/15 03:52:11;;;;;;;24.17;18.57;;;;;;;10.49;85.73;100681.70;1633604;87;20901;-72
2021/10/15 03:54:38;;;;;;;26.55;19.55;;;;;;;10.49;85.70;100684.28;1635535;87;21043;-72
2021/10/15 03:57:04;;;;;;;27.30;20.03;;;;;;;10.50;85.71;100681.27;1635503;86;21111;-72
2021/10/15 03:59:30;;;;;;;27.82;20.48;;;;;;;10.49;85.69;100677.83;1642205;86;21068;-72
2021/10/15 04:01:56;;;;;;;27.13;19.17;;;;;;;10.49;85.71;100680.84;1626242;86;21183;-72
2021/10/15 04:04:22;;;;;;;29.40;21.20;;;;;;;10.49;85.73;100686.87;1635775;86;21693;-72
2021/10/15 04:06:48;;;;;;;24.55;19.80;;;;;;;10.49;85.70;100684.28;1644779;86;21111;-72
2021/10/15 04:09:17;;;;;;;24.95;19.73;;;;;;;10.49;85.75;100668.77;1631391;87;21078;-72
2021/10/15 04:11:43;;;;;;;31.83;20.97;;;;;;;10.49;85.73;100670.50;1637508;86;21764;-72
2021/10/15 04:14:09;;;;;;;26.53;20.50;;;;;;;10.48;85.75;100664.48;1647285;86;20965;-72
2021/10/15 04:16:35;;;;;;;26.62;20.62;;;;;;;10.49;85.74;100662.75;1641846;86;21126;-72
2021/10/15 04:19:01;;;;;;;27.67;20.73;;;;;;;10.50;85.74;100663.16;1634060;87;21068;-72
2021/10/15 04:21:27;;;;;;;26.47;20.93;;;;;;;10.49;85.76;100655.84;1635497;87;20880;-72
2021/10/15 04:23:53;;;;;;;29.00;21.12;;;;;;;10.49;85.77;100654.55;1634342;86;21099;-72
2021/10/15 04:26:32;;;;;;;28.75;20.27;;;;;;;10.50;85.75;100649.80;1638179;86;21107;-73
2021/10/15 04:28:58;;;;;;;30.37;21.53;;;;;;;10.50;85.76;100648.95;1635848;86;21075;-72
2021/10/15 04:31:24;;;;;;;29.10;21.17;;;;;;;10.49;85.75;100645.50;1635835;86;21289;-72
2021/10/15 04:33:53;;;;;;;26.93;19.98;;;;;;;10.50;85.77;100639.45;1634162;86;21043;-73
2021/10/15 04:36:19;;;;;;;32.10;20.80;;;;;;;10.51;85.82;100636.44;1635317;86;21127;-73
2021/10/15 04:38:46;;;;;;;26.77;20.43;;;;;;;10.51;85.73;100646.34;1634444;86;21298;-73
2021/10/15 04:41:14;;;;;;;28.38;20.62;;;;;;;10.51;85.76;100638.58;1636743;86;20920;-73
2021/10/15 04:43:40;;;;;;;30.93;21.80;;;;;;;10.51;85.76;100632.12;1637609;86;21019;-72
2021/10/15 04:46:07;;;;;;;31.25;23.27;;;;;;;10.53;85.79;100631.66;1636323;87;20932;-72
2021/10/15 04:48:38;;;;;;;32.30;21.45;;;;;;;10.53;85.78;100637.27;1650507;86;20918;-72
2021/10/15 04:51:05;;;;;;;29.43;22.03;;;;;;;10.53;85.77;100636.83;1646392;86;20967;-72
2021/10/15 04:53:31;;;;;;;31.10;21.70;;;;;;;10.53;85.74;100621.75;1635253;86;20927;-72
2021/10/15 04:55:57;;;;;;;27.95;20.88;;;;;;;10.52;85.73;100622.19;1641576;86;20912;-72
2021/10/15 04:58:23;;;;;;;29.87;23.13;;;;;;;10.51;85.73;100616.61;1642391;86;20938;-72
2021/10/15 05:00:49;;;;;;;31.33;20.47;;;;;;;10.53;85.79;100628.22;1641898;87;21615;-72
2021/10/15 05:03:16;;;;;;;31.25;21.52;;;;;;;10.53;85.74;100623.05;1635830;86;20960;-72
2021/10/15 05:05:43;;;;;;;31.63;22.77;;;;;;;10.54;85.77;100617.00;1649024;86;20956;-72
2021/10/15 05:08:16;;;;;;;32.13;22.82;;;;;;;10.54;85.78;100619.58;1636913;86;20928;-72
2021/10/15 05:10:45;;;;;;;31.27;23.15;;;;;;;10.54;85.75;100620.44;1636894;87;20960;-72
2021/10/15 05:13:13;;;;;;;36.65;24.32;;;;;;;10.54;85.78;100617.00;1639184;86;20952;-72
2021/10/15 05:15:44;;;;;;;33.30;23.27;;;;;;;10.55;85.80;100614.83;1629082;87;21543;-72
2021/10/15 05:18:14;;;;;;;36.50;22.27;;;;;;;10.55;85.79;100616.13;1636278;87;20952;-72
2021/10/15 05:20:45;;;;;;;32.80;23.65;;;;;;;10.56;85.78;100605.75;1633641;86;20968;-72
2021/10/15 05:23:13;;;;;;;30.88;22.65;;;;;;;10.57;85.76;100604.02;1635059;86;21457;-72
2021/10/15 05:25:39;;;;;;;29.90;22.82;;;;;;;10.56;85.80;100602.31;1636421;87;20896;-72
2021/10/15 05:28:07;;;;;;;31.15;22.25;;;;;;;10.58;85.80;100600.56;1636935;87;20945;-72
2021/10/15 05:30:33;;;;;;;30.75;23.27;;;;;;;10.58;85.82;100591.06;1632150;86;20877;-72
2021/10/15 05:32:59;;;;;;;33.92;24.27;;;;;;;10.58;85.78;100583.31;1636432;86;20944;-71
2021/10/15 05:35:32;;;;;;;32.13;22.67;;;;;;;10.59;85.81;100589.34;1636433;86;20926;-71
2021/10/15 05:37:58;;;;;;;31.83;22.53;;;;;;;10.58;85.80;100593.66;1638656;86;21028;-71
2021/10/15 05:40:25;;;;;;;31.55;23.47;;;;;;;10.59;85.81;100585.02;1636555;86;21589;-71
2021/10/15 05:42:53;;;;;;;31.02;22.82;;;;;;;10.59;85.80;100583.73;1636610;87;20952;-71
2021/10/15 05:45:19;;;;;;;33.57;24.23;;;;;;;10.59;85.79;100582.44;1630316;86;20947;-72
2021/10/15 05:47:45;;;;;;;31.33;23.70;;;;;;;10.60;85.79;100580.70;1635968;87;20971;-72
2021/10/15 05:50:11;;;;;;;34.67;24.85;;;;;;;10.60;85.77;100580.27;1623665;87;21114;-72
2021/10/15 05:52:41;;;;;;;32.80;23.18;;;;;;;10.61;85.81;100578.53;1644193;86;25295;-72
2021/10/15 06:00:27;;;;;;;31.23;22.52;;;;;;;10.63;85.76;100584.97;1628956;86;21023;-72
2021/10/15 06:02:53;;;;;;;27.80;21.77;;;;;;;10.62;85.83;100581.53;1637060;86;21398;-72
2021/10/15 06:15:50;;;;;;;26.90;20.90;;;;;;;10.66;85.84;100570.26;1635083;86;20961;-72
2021/10/15 06:18:24;;;;;;;29.72;21.90;;;;;;;10.67;85.78;100571.96;1630405;86;20924;-72
2021/10/15 06:20:51;;;;;;;28.60;21.68;;;;;;;10.69;85.80;100570.20;1647694;86;21025;-72
2021/10/15 06:23:18;;;;;;;;;;;;;;;10.71;85.79;100575.34;1635515;86;20944;-71
2021/10/15 06:25:44;;;;;;;32.42;22.62;;;;;;;10.70;85.87;100573.20;1635670;86;20149;-71
2021/10/15 06:28:11;;;;;;;25.50;20.77;;;;;;;10.72;85.84;100577.91;1637056;87;20964;-71
2021/10/15 06:33:12;;;;;;;25.27;19.95;;;;;;;10.77;85.79;100564.90;1831058;75;22696;-72
2021/10/15 06:35:43;;;;;;;26.33;20.15;;;;;;;10.75;85.82;100567.95;1807017;77;21030;-72
2021/10/15 06:38:11;;;;;;;29.17;20.97;;;;;;;10.77;85.84;100566.19;1818867;77;20912;-72
2021/10/15 06:40:38;;;;;;;24.67;18.52;;;;;;;10.79;85.85;100560.55;1814936;77;21036;-72
2021/10/15 06:43:07;;;;;;;25.20;19.65;;;;;;;10.80;85.81;100557.94;1817612;77;20972;-72
2021/10/15 06:45:34;;;;;;;26.27;18.80;;;;;;;10.84;85.84;100548.39;1811075;77;20901;-72
2021/10/15 06:48:00;;;;;;;22.52;17.32;;;;;;;10.86;85.80;100546.63;1815012;77;20911;-72
2021/10/15 06:50:26;;;;;;;22.75;18.15;;;;;;;10.86;85.77;100544.90;1808912;77;20880;-72
2021/10/15 06:52:53;;;;;;;23.80;18.23;;;;;;;10.87;85.76;100540.58;1819393;77;20886;-72
2021/10/15 06:55:21;;;;;;;28.80;18.17;;;;;;;10.89;85.76;100539.67;1812118;77;20889;-72
2021/10/15 06:57:49;;;;;;;21.45;17.70;;;;;;;10.90;85.77;100541.81;1791968;79;20878;-72
2021/10/15 07:00:17;;;;;;;22.05;16.75;;;;;;;10.92;85.79;100536.14;1820551;77;20885;-72
2021/10/15 07:02:46;;;;;;;19.95;16.32;;;;;;;10.92;85.72;100536.14;1793836;77;21312;-72
2021/10/15 07:05:13;;;;;;;25.27;17.97;;;;;;;10.94;85.77;100536.97;1754077;80;20886;-72
2021/10/15 07:07:39;;;;;;;;;;;;;;;10.94;85.74;100541.70;1768385;80;20935;-72
2021/10/15 07:10:06;;;;;;;17.32;15.32;;;;;;;10.95;85.78;100551.16;1785075;79;20115;-72
2021/10/15 07:12:40;;;;;;;17.32;15.45;;;;;;;10.98;85.80;100550.26;1792622;79;20900;-72
2021/10/15 07:15:09;;;;;;;20.10;16.77;;;;;;;11.00;85.77;100540.73;1791920;79;21015;-72
2021/10/15 07:17:35;;;;;;;20.97;16.55;;;;;;;11.03;85.76;100542.41;1788648;79;20865;-72
2021/10/15 07:20:07;;;;;;;19.60;16.27;;;;;;;11.05;85.76;100535.03;1789504;79;21543;-72
2021/10/15 07:22:34;;;;;;;20.88;16.55;;;;;;;11.08;85.74;100531.09;1790652;79;20944;-72
2021/10/15 07:25:00;;;;;;;20.50;15.58;;;;;;;11.12;85.74;100537.91;1764561;78;145555;-72
2021/10/15 07:27:26;;;;;;;19.15;16.05;;;;;;;11.15;85.72;100535.70;1686362;83;21371;-72
2021/10/15 07:29:52;;;;;;;21.50;15.48;;;;;;;11.18;85.73;100540.83;1685611;83;20917;-72
2021/10/15 07:32:19;;;;;;;19.37;15.10;;;;;;;11.22;85.76;100538.14;1684891;83;20949;-72
2021/10/15 07:34:51;;;;;;;18.50;14.35;;;;;;;11.26;85.69;100533.32;1649916;85;21460;-72
2021/10/15 07:37:17;;;;;;;16.43;14.57;;;;;;;11.30;85.70;100530.67;1682060;83;22380;-72
2021/10/15 07:39:43;;;;;;;19.55;14.18;;;;;;;11.33;85.69;100532.75;1681936;83;22116;-72
2021/10/15 07:42:15;;;;;;;15.88;13.35;;;;;;;11.39;85.68;100520.98;1622286;86;21057;-72
2021/10/15 07:44:41;;;;;;;18.43;14.10;;;;;;;11.50;85.65;100523.31;1645139;86;21700;-72
2021/10/15 07:47:07;;;;;;;19.07;14.45;;;;;;;11.61;85.64;100516.17;1637363;85;21043;-72
2021/10/15 07:49:33;;;;;;;16.55;12.70;;;;;;;11.72;85.58;100520.67;1639703;86;21569;-72
2021/10/15 07:51:59;;;;;;;14.07;12.67;;;;;;;11.88;85.59;100515.59;1640817;86;20993;-72
2021/10/15 07:54:25;;;;;;;14.45;12.60;;;;;;;12.07;85.61;100506.06;1644405;86;21590;-72
2021/10/15 07:56:52;;;;;;;13.32;11.80;;;;;;;12.14;85.62;100501.14;1646105;86;21475;-72
2021/10/15 07:59:18;;;;;;;15.75;12.35;;;;;;;12.16;85.56;100513.18;1635887;86;21419;-72
2021/10/15 08:01:47;;;;;;;14.63;12.80;;;;;;;12.18;85.58;100509.25;1658630;85;21152;-72
2021/10/15 08:04:15;;;;;;;14.10;10.97;;;;;;;12.17;85.60;100508.41;1664320;85;21481;-72
2021/10/15 08:06:41;;;;;;;15.55;11.28;;;;;;;12.17;85.55;100515.33;1658604;85;20997;-72
2021/10/15 08:09:13;;;;;;;14.45;10.25;;;;;;;12.14;85.45;100514.10;1658742;85;22222;-72
2021/10/15 08:11:39;;;;;;;13.00;10.70;;;;;;;12.09;85.50;100514.66;1632307;86;20991;-72
2021/10/15 08:14:05;;;;;;;11.97;10.73;;;;;;;12.04;85.43;100519.09;1639403;86;21028;-72
2021/10/15 08:16:31;;;;;;;12.93;10.73;;;;;;;11.99;85.46;100519.64;1629658;86;21081;-72
2021/10/15 08:18:57;;;;;;;11.87;10.57;;;;;;;11.96;85.50;100525.75;1680246;83;20925;-72
2021/10/15 08:21:23;;;;;;;11.43;10.28;;;;;;;11.97;85.49;100520.98;1680684;83;21586;-72
2021/10/15 08:23:49;;;;;;;12.33;10.80;;;;;;;12.00;85.53;100511.84;1685460;84;21059;-72
2021/10/15 08:26:15;;;;;;;12.00;10.77;;;;;;;12.03;85.53;100513.50;1668874;84;21870;-72
2021/10/15 08:28:43;;;;;;;12.43;10.83;;;;;;;12.09;85.56;100504.29;1687395;83;21390;-72
2021/10/15 08:31:09;;;;;;;12.03;10.35;;;;;;;12.17;85.54;100501.92;1679205;84;21419;-72
2021/10/15 08:33:35;;;;;;;12.00;9.80;;;;;;;12.24;85.51;100493.55;1682526;83;20978;-72
2021/10/15 08:36:01;;;;;;;13.60;10.40;;;;;;;12.31;85.46;100495.55;1686423;83;21568;-72
2021/10/15 08:38:27;;;;;;;11.30;10.17;;;;;;;12.34;85.42;100487.25;1683036;83;21784;-72
2021/10/15 08:40:53;;;;;;;11.40;9.80;;;;;;;12.38;85.34;100497.09;1683466;83;21595;-72
2021/10/15 08:43:19;;;;;;;13.50;10.27;;;;;;;12.39;85.27;100485.84;1682960;83;20881;-72
2021/10/15 08:48:29;;;;;;;11.18;9.30;;;;;;;12.44;85.22;100475.75;1853168;75;22999;-72
2021/10/15 08:50:57;;;;;;;11.00;9.38;;;;;;;12.36;85.17;100467.77;1822958;77;21460;-72
2021/10/15 08:53:27;;;;;;;10.30;9.18;;;;;;;12.33;85.21;100458.32;1819795;77;20945;-72
2021/10/15 08:55:53;;;;;;;9.48;8.58;;;;;;;12.37;85.28;100464.28;1821108;77;20913;-72
2021/10/15 08:58:19;;;;;;;9.13;8.23;;;;;;;12.38;85.23;100455.61;1806386;77;25286;-72
2021/10/15 09:00:46;;;;;;;10.35;8.58;;;;;;;12.40;85.20;100471.53;1797594;78;21401;-72
2021/10/15 09:03:20;;;;;;;10.38;8.58;;;;;;;12.43;85.21;100464.97;1771976;79;21346;-72
2021/10/15 09:05:56;;;;;;;9.03;8.13;;;;;;;12.44;85.18;100471.86;1812680;77;20857;-72
2021/10/15 09:08:24;;;;;;;10.80;9.10;;;;;;;12.48;85.16;100473.45;1803737;77;21613;-72
2021/10/15 09:10:51;;;;;;;10.08;9.05;;;;;;;12.52;85.09;100466.45;1794372;77;20881;-72
2021/10/15 09:13:20;;;;;;;9.60;8.58;;;;;;;12.56;85.14;100466.33;1764054;77;20944;-72
2021/10/15 09:15:52;;;;;;;9.03;8.10;;;;;;;12.69;85.23;100454.33;1797693;77;20944;-72
2021/10/15 09:18:29;;;;;;;12.63;7.90;;;;;;;12.73;84.99;100467.63;1792888;77;20963;-72
2021/10/15 09:20:50;;;;;;;7.58;6.83;;;;;;;12.76;84.89;100463.20;1796021;77;20940;-72
2021/10/15 09:23:16;;;;;;;9.68;7.62;;;;;;;12.81;84.97;100467.82;1787769;77;20987;-72
2021/10/15 09:25:46;;;;;;;7.87;7.08;;;;;;;12.87;84.94;100468.09;1797185;77;21047;-72
2021/10/15 09:28:22;;;;;;;9.43;6.72;;;;;;;12.91;84.85;100458.89;1808921;77;21087;-72
2021/10/15 09:30:51;;;;;;;7.35;6.60;;;;;;;12.93;84.76;100460.99;1784597;77;20930;-72
2021/10/15 09:33:20;;;;;;;8.80;6.53;;;;;;;12.98;84.71;100466.50;1747570;80;21048;-72
2021/10/15 09:35:46;;;;;;;8.45;6.42;;;;;;;13.01;84.75;100464.64;1743655;79;21031;-72
2021/10/15 09:38:14;;;;;;;7.83;6.28;;;;;;;13.05;84.69;100462.81;1754997;79;20910;-72
2021/10/15 09:40:48;;;;;;;10.10;6.07;;;;;;;13.11;84.63;100458.74;1742980;79;20953;-72
2021/10/15 09:43:15;;;;;;;8.33;5.87;;;;;;;13.18;84.64;100448.16;1665334;81;410877;-72
2021/10/15 09:45:47;;;;;;;5.78;5.28;;;;;;;13.27;84.71;100443.59;1693879;84;20949;-72
2021/10/15 09:48:31;;;;;;;8.48;6.00;;;;;;;13.32;84.59;100443.02;1672543;84;21036;-72
2021/10/15 09:51:19;;;;;;;7.58;6.25;;;;;;;13.40;84.64;100448.38;1686236;82;21067;-72
2021/10/15 09:54:15;;;;;;;6.65;5.75;;;;;;;13.53;84.61;100448.83;1690682;83;21374;-72
2021/10/15 09:56:53;;;;;;;8.18;5.92;;;;;;;13.63;84.44;100439.01;1689524;82;21134;-72
2021/10/15 09:59:19;;;;;;;6.20;5.70;;;;;;;13.72;84.38;100434.82;1691746;83;21064;-72
2021/10/15 10:01:51;;;;;;;8.88;5.95;;;;;;;13.78;84.17;100429.43;1686735;83;21051;-72
2021/10/15 10:04:17;;;;;;;6.30;5.70;;;;;;;13.78;84.12;100438.08;1695777;83;20991;-72
2021/10/15 10:06:43;;;;;;;6.35;5.65;;;;;;;13.81;84.06;100424.98;1691196;83;26637;-72
2021/10/15 10:09:09;;;;;;;5.63;5.03;;;;;;;13.87;84.20;100436.94;1690356;83;21043;-72
2021/10/15 10:11:36;;;;;;;7.97;5.93;;;;;;;13.91;84.11;100432.89;1681864;84;20976;-72
2021/10/15 10:14:02;;;;;;;6.67;5.33;;;;;;;13.98;84.14;100433.98;1693347;83;21107;-72
2021/10/15 10:16:31;;;;;;;5.97;5.22;;;;;;;14.03;84.09;100435.98;1690391;83;21043;-72
2021/10/15 10:19:01;;;;;;;4.90;4.50;;;;;;;14.09;84.05;100424.90;1685551;83;20972;-72
2021/10/15 10:21:33;;;;;;;4.97;4.55;;;;;;;14.18;84.08;100427.20;1663953;85;20950;-72
2021/10/15 10:24:16;;;;;;;4.67;4.28;;;;;;;14.29;84.05;100422.94;1689385;84;20901;-72
2021/10/15 10:26:48;;;;;;;5.30;4.80;;;;;;;14.40;83.94;100426.47;1686918;83;20891;-72
2021/10/15 10:29:14;;;;;;;4.97;4.45;;;;;;;14.47;83.87;100421.03;1695054;84;20939;-72
2021/10/15 10:31:40;;;;;;;8.38;4.72;;;;;;;14.54;83.82;100416.02;1683924;82;21536;-71
2021/10/15 10:34:14;;;;;;;5.13;4.63;;;;;;;14.60;83.82;100416.21;1699428;82;21381;-71
2021/10/15 10:36:39;;;;;;;6.83;4.50;;;;;;;14.61;83.63;100410.11;1689487;82;20960;-71
2021/10/15 10:39:23;;;;;;;6.30;4.83;;;;;;;14.63;83.57;100421.76;1694265;83;20884;-72
2021/10/15 10:42:15;;;;;;;5.78;4.20;;;;;;;14.65;83.36;100412.14;1691750;82;20888;-72
2021/10/15 10:44:57;;;;;;;7.33;4.95;;;;;;;14.62;83.40;100407.90;1692768;83;20924;-72
2021/10/15 10:47:26;;;;;;;9.08;3.90;;;;;;;14.61;83.21;100414.01;1678988;82;20914;-72
2021/10/15 10:50:08;;;;;;;4.85;4.10;;;;;;;14.56;83.17;100403.77;1715320;81;20902;-71
2021/10/15 10:52:48;;;;;;;6.22;4.65;;;;;;;14.56;83.09;100410.27;1689989;84;20989;-72
2021/10/15 10:55:45;;;;;;;5.20;3.62;;;;;;;14.57;83.06;100395.50;1707074;83;21123;-72
2021/10/15 10:58:36;;;;;;;7.85;4.12;;;;;;;14.60;83.09;100395.39;1678009;84;20954;-72
2021/10/15 11:01:28;;;;;;;5.72;3.62;;;;;;;14.61;83.04;100403.59;1680100;84;20904;-72
2021/10/15 11:03:56;;;;;;;4.08;3.77;;;;;;;14.59;82.98;100398.91;1712048;83;21485;-72
2021/10/15 11:06:23;;;;;;;7.20;3.42;;;;;;;14.56;82.91;100396.41;1683348;83;21053;-72
2021/10/15 11:08:51;;;;;;;4.28;3.22;;;;;;;14.55;82.96;100396.89;1683052;83;26931;-72
2021/10/15 11:11:27;;;;;;;4.78;3.37;;;;;;;14.56;82.96;100397.70;1719283;81;21036;-72
2021/10/15 11:13:53;;;;;;;3.75;3.25;;;;;;;14.52;82.79;100394.84;1681331;84;21071;-72
2021/10/15 11:16:27;;;;;;;3.40;2.92;;;;;;;14.45;82.72;100378.61;1694160;83;21055;-72
2021/10/15 11:18:54;;;;;;;4.33;3.10;;;;;;;14.40;82.64;100396.09;1684146;84;20906;-71
2021/10/15 11:21:21;;;;;;;3.50;3.20;;;;;;;14.37;82.62;100389.70;1707208;81;20962;-72
2021/10/15 11:23:53;;;;;;;3.45;3.15;;;;;;;14.32;82.55;100383.81;1682016;84;20922;-72
2021/10/15 11:26:33;;;;;;;5.10;2.80;;;;;;;14.27;82.44;100379.67;1721361;83;21019;-72
2021/10/15 11:29:09;;;;;;;4.92;2.60;;;;;;;14.22;82.39;100376.78;1684330;84;21113;-72
2021/10/15 11:31:35;;;;;;;5.03;2.95;;;;;;;14.22;82.33;100365.53;1699112;82;21688;-72
2021/10/15 11:34:13;;;;;;;4.05;2.85;;;;;;;14.20;82.37;100373.83;1721046;83;21050;-72
2021/10/15 11:36:43;;;;;;;3.22;2.75;;;;;;;14.20;82.15;100386.84;1683285;84;21038;-77
2021/10/15 11:39:09;;;;;;;3.93;2.87;;;;;;;14.18;82.12;100380.84;1712224;81;20963;-73
2021/10/15 11:41:49;;;;;;;3.07;2.77;;;;;;;14.14;82.10;100372.30;1663796;84;21041;-73